Time;durP1;ratioP1;P1;durP2;ratioP2;P2;SDS_P1;SDS_P2;PMS_P1;PMS_P2;Temp;Humidity;BMP_temperature;BMP_pressure;BME280_temperature;BME280_humidity;BME280_pressure;Samples;Min_cycle;Max_cycle;Signal;HPM_P1;HPM_P2
2023/02/12 00:01:14;;;;;;;40.35;22.48;;;8.90;55.70;;;;;;5116569;27;20472;-74
2023/02/12 00:03:40;;;;;;;42.33;23.70;;;9.00;55.70;;;;;;5135346;27;20027;-74
2023/02/12 00:06:07;;;;;;;38.92;23.88;;;9.00;56.20;;;;;;5135494;27;20064;-74
2023/02/12 00:08:34;;;;;;;46.35;26.15;;;9.00;55.70;;;;;;5135375;27;20416;-74
2023/02/12 00:11:07;;;;;;;46.05;25.23;;;9.00;55.70;;;;;;5135291;27;20023;-74
2023/02/12 00:13:33;;;;;;;36.35;22.80;;;9.00;55.70;;;;;;5135290;27;20042;-74
2023/02/12 00:15:58;;;;;;;39.92;23.17;;;9.10;55.70;;;;;;5134672;27;20027;-74
2023/02/12 00:18:24;;;;;;;43.72;25.33;;;9.10;55.70;;;;;;5134732;27;20023;-74
2023/02/12 00:20:50;;;;;;;40.42;25.40;;;9.10;55.60;;;;;;5135083;27;20023;-75
2023/02/12 00:23:16;;;;;;;48.55;27.00;;;9.10;55.60;;;;;;5135148;27;20418;-74
2023/02/12 00:25:42;;;;;;;44.60;25.88;;;9.10;55.60;;;;;;5115729;27;20109;-74
2023/02/12 00:28:07;;;;;;;41.80;23.98;;;9.10;55.60;;;;;;5135106;27;20019;-74
2023/02/12 00:30:34;;;;;;;41.40;23.17;;;9.10;55.70;;;;;;5134456;27;20019;-74
2023/02/12 00:33:00;;;;;;;43.35;24.10;;;9.10;55.70;;;;;;5134039;27;20422;-75
2023/02/12 00:35:26;;;;;;;46.63;26.08;;;9.10;55.60;;;;;;5133863;27;20023;-74
2023/02/12 00:37:52;;;;;;;39.83;23.77;;;9.10;55.60;;;;;;5129157;27;20027;-75
2023/02/12 00:40:17;;;;;;;41.10;23.75;;;9.10;55.60;;;;;;5125456;27;20039;-75
2023/02/12 00:42:43;;;;;;;43.88;26.08;;;9.10;55.60;;;;;;5124661;27;20046;-75
2023/02/12 00:45:10;;;;;;;46.63;25.52;;;9.20;55.60;;;;;;5129778;27;20039;-74
2023/02/12 00:47:36;;;;;;;48.22;27.80;;;9.20;55.70;;;;;;5126345;27;20495;-74
2023/02/12 00:50:02;;;;;;;41.47;24.17;;;9.10;55.60;;;;;;5103824;27;20052;-74
2023/02/12 00:52:28;;;;;;;42.70;24.15;;;9.10;55.70;;;;;;5106501;28;20028;-74
2023/02/12 00:54:58;;;;;;;47.55;26.60;;;9.20;56.30;;;;;;5108561;27;20487;-74
2023/02/12 00:57:32;;;;;;;37.88;23.08;;;9.10;55.60;;;;;;5108982;28;20026;-74
2023/02/12 00:59:58;;;;;;;48.20;26.43;;;9.10;55.70;;;;;;5104781;28;20016;-75
2023/02/12 01:02:24;;;;;;;45.25;25.65;;;9.10;55.60;;;;;;5104644;28;20253;-74
2023/02/12 01:04:50;;;;;;;45.97;26.55;;;9.10;55.70;;;;;;5106670;28;20027;-75
2023/02/12 01:07:15;;;;;;;42.40;25.08;;;9.10;55.80;;;;;;5106750;28;20023;-74
2023/02/12 01:09:41;;;;;;;44.33;26.70;;;9.00;55.80;;;;;;5105411;28;20755;-74
2023/02/12 01:12:07;;;;;;;46.67;26.50;;;9.00;55.80;;;;;;5101415;28;20054;-74
2023/02/12 01:14:33;;;;;;;48.92;28.90;;;9.00;55.90;;;;;;5105825;28;20056;-74
2023/02/12 01:16:59;;;;;;;47.38;27.10;;;9.00;55.90;;;;;;5099929;28;20422;-74
2023/02/12 01:19:28;;;;;;;49.67;27.88;;;9.00;56.00;;;;;;5101273;28;20077;-74
2023/02/12 01:21:59;;;;;;;48.72;27.52;;;9.00;56.00;;;;;;5103573;28;20102;-75
2023/02/12 01:24:25;;;;;;;49.60;26.45;;;9.00;56.10;;;;;;5103328;28;20435;-74
2023/02/12 01:26:51;;;;;;;51.67;27.38;;;9.00;56.20;;;;;;5107293;28;20032;-75
2023/02/12 01:29:17;;;;;;;42.88;25.13;;;9.00;56.20;;;;;;5106132;28;20472;-75
2023/02/12 01:31:42;;;;;;;47.58;26.92;;;9.00;56.30;;;;;;5099765;28;20076;-74
2023/02/12 01:34:10;;;;;;;45.72;26.05;;;9.00;56.30;;;;;;5102516;28;20403;-74
2023/02/12 01:36:35;;;;;;;48.90;27.38;;;9.00;56.40;;;;;;5104795;28;20027;-74
2023/02/12 01:39:02;;;;;;;46.97;26.55;;;9.00;56.50;;;;;;5105136;28;20019;-74
2023/02/12 01:41:32;;;;;;;48.30;27.17;;;9.00;56.60;;;;;;5102779;28;20024;-75
2023/02/12 01:44:17;;;;;;;44.88;25.63;;;8.90;56.50;;;;;;5104276;28;20026;-74
2023/02/12 01:46:44;;;;;;;46.40;26.80;;;8.90;56.60;;;;;;5103077;28;20034;-74
2023/02/12 01:49:21;;;;;;;51.80;26.95;;;8.90;56.60;;;;;;5109289;27;20043;-74
2023/02/12 01:51:51;;;;;;;49.45;27.02;;;8.90;56.70;;;;;;5126383;27;20051;-74
2023/02/12 01:54:20;;;;;;;48.65;27.45;;;8.90;56.70;;;;;;5123897;27;20494;-75
2023/02/12 01:56:46;;;;;;;48.92;27.48;;;8.80;56.90;;;;;;5126628;27;20026;-75
2023/02/12 01:59:12;;;;;;;45.00;26.65;;;8.80;56.90;;;;;;5125965;27;20023;-75
2023/02/12 02:01:39;;;;;;;53.30;28.98;;;8.80;57.10;;;;;;5109249;28;20385;-75
2023/02/12 02:04:11;;;;;;;47.28;27.08;;;8.80;57.10;;;;;;5126924;27;20073;-74
2023/02/12 02:07:01;;;;;;;52.30;28.58;;;8.80;57.30;;;;;;5105168;27;20019;-74
2023/02/12 02:09:29;;;;;;;56.35;29.95;;;8.80;57.30;;;;;;5114128;27;20137;-74
2023/02/12 02:14:41;;;;;;;56.42;29.75;;;8.80;57.50;;;;;;5124101;27;20440;-75
2023/02/12 02:17:44;;;;;;;54.47;29.95;;;8.80;57.60;;;;;;5123417;27;20144;-74
2023/02/12 02:20:33;;;;;;;54.00;30.95;;;8.80;57.80;;;;;;5122557;27;20016;-75
2023/02/12 02:23:23;;;;;;;63.30;33.03;;;8.80;57.90;;;;;;5105134;28;20361;-76
2023/02/12 02:25:55;;;;;;;65.70;33.53;;;8.80;58.20;;;;;;5122739;27;20015;-75
2023/02/12 02:28:32;;;;;;;65.40;33.47;;;8.80;58.50;;;;;;5123151;27;20019;-74
2023/02/12 02:31:28;;;;;;;58.08;34.00;;;8.70;59.00;;;;;;5123620;27;20030;-75
2023/02/12 02:34:02;;;;;;;57.50;32.95;;;8.70;59.40;;;;;;5121245;27;20035;-75
2023/02/12 02:36:40;;;;;;;63.35;33.15;;;8.70;59.60;;;;;;5122906;27;20067;-75
2023/02/12 02:39:21;;;;;;;64.63;34.67;;;8.70;59.70;;;;;;5122943;27;20030;-75
2023/02/12 02:41:54;;;;;;;57.53;33.08;;;8.70;59.80;;;;;;5122719;27;20130;-75
2023/02/12 02:44:28;;;;;;;59.10;33.45;;;8.70;59.90;;;;;;5122838;27;20103;-75
2023/02/12 02:46:56;;;;;;;70.40;36.57;;;8.70;60.20;;;;;;5122971;27;20027;-75
2023/02/12 02:49:26;;;;;;;70.22;37.13;;;8.70;60.50;;;;;;5122410;27;20047;-75
2023/02/12 02:52:00;;;;;;;68.35;36.60;;;8.60;60.80;;;;;;5129589;27;20035;-75
2023/02/12 02:54:33;;;;;;;67.55;35.55;;;8.60;61.10;;;;;;5126265;27;20144;-73
2023/02/12 02:57:28;;;;;;;75.07;38.72;;;8.70;61.20;;;;;;5128530;27;20076;-73
2023/02/12 03:00:02;;;;;;;76.65;38.38;;;8.60;61.40;;;;;;5093122;27;20042;-73
2023/02/12 03:02:36;;;;;;;75.50;39.00;;;8.60;62.20;;;;;;5126299;27;20012;-73
2023/02/12 03:05:08;;;;;;;71.13;40.33;;;8.60;61.60;;;;;;5126252;27;20498;-74
2023/02/12 03:07:40;;;;;;;59.88;34.22;;;8.60;61.80;;;;;;5126968;27;20031;-74
2023/02/12 03:10:28;;;;;;;55.55;31.85;;;8.60;61.80;;;;;;5109245;27;20030;-74
2023/02/12 03:13:07;;;;;;;77.57;40.13;;;8.60;61.60;;;;;;5129295;27;20050;-74
2023/02/12 03:15:53;;;;;;;68.95;37.20;;;8.60;61.60;;;;;;5125727;27;20020;-75
2023/02/12 03:18:24;;;;;;;65.60;37.50;;;8.60;61.60;;;;;;5126035;27;20057;-74
2023/02/12 03:21:00;;;;;;;66.68;37.30;;;8.60;61.60;;;;;;5125407;27;20078;-74
2023/02/12 03:23:31;;;;;;;63.90;38.03;;;8.60;61.60;;;;;;5124711;27;20016;-74
2023/02/12 03:26:19;;;;;;;68.30;36.83;;;8.60;61.60;;;;;;5110325;27;20055;-74
2023/02/12 03:28:45;;;;;;;70.90;39.88;;;8.60;61.60;;;;;;5106600;27;20054;-74
2023/02/12 03:31:50;;;;;;;76.32;39.83;;;8.60;61.60;;;;;;5124029;27;20107;-75
2023/02/12 03:34:53;;;;;;;72.22;40.85;;;8.60;61.60;;;;;;5125920;27;20342;-74
2023/02/12 03:38:04;;;;;;;79.05;39.67;;;8.60;61.60;;;;;;5129103;27;20015;-75
2023/02/12 03:40:56;;;;;;;66.25;35.00;;;8.50;62.50;;;;;;5124382;27;20030;-74
2023/02/12 03:43:41;;;;;;;70.63;36.47;;;8.50;61.70;;;;;;5126447;27;20027;-74
2023/02/12 03:46:22;;;;;;;58.95;33.72;;;8.50;61.70;;;;;;5125847;27;20383;-75
2023/02/12 03:49:10;;;;;;;70.15;38.58;;;8.60;61.60;;;;;;5124749;27;20027;-75
2023/02/12 03:51:43;;;;;;;61.50;35.08;;;8.60;61.70;;;;;;5125558;27;20018;-74
2023/02/12 03:54:11;;;;;;;68.70;39.85;;;8.60;61.70;;;;;;5104434;27;20464;-74
2023/02/12 03:56:51;;;;;;;66.85;35.65;;;8.50;61.70;;;;;;5125906;27;20039;-74
2023/02/12 03:59:21;;;;;;;69.35;38.65;;;8.50;61.70;;;;;;5125274;27;20027;-74
2023/02/12 04:01:48;;;;;;;67.43;36.53;;;8.50;61.70;;;;;;5126843;27;20484;-75
2023/02/12 04:04:15;;;;;;;55.30;33.70;;;8.50;61.70;;;;;;5125185;27;20031;-74
2023/02/12 04:06:41;;;;;;;67.57;36.75;;;8.60;61.60;;;;;;5126312;27;20027;-74
2023/02/12 04:09:10;;;;;;;63.15;35.20;;;8.60;61.50;;;;;;5124728;27;20023;-74
2023/02/12 04:11:50;;;;;;;74.75;38.80;;;8.60;61.50;;;;;;5112994;27;20062;-74
2023/02/12 04:14:28;;;;;;;69.13;37.22;;;8.50;61.40;;;;;;5125153;27;20035;-75
2023/02/12 04:17:04;;;;;;;69.05;36.70;;;8.50;61.40;;;;;;5127752;27;20451;-74
2023/02/12 04:19:54;;;;;;;61.60;35.03;;;8.50;61.40;;;;;;5124588;27;20103;-74
2023/02/12 04:22:38;;;;;;;63.70;36.47;;;8.50;61.40;;;;;;5131744;27;20019;-74
2023/02/12 04:25:07;;;;;;;67.80;35.97;;;8.50;61.40;;;;;;5122211;27;20029;-74
2023/02/12 04:28:06;;;;;;;59.85;33.17;;;8.50;61.60;;;;;;5124520;27;20028;-75
2023/02/12 04:30:40;;;;;;;62.55;34.53;;;8.50;61.70;;;;;;5125613;27;20034;-75
2023/02/12 04:33:08;;;;;;;;;;;8.50;61.90;;;;;;5108549;27;20387;-74
2023/02/12 04:35:47;;;;;;;61.55;30.50;;;8.50;61.40;;;;;;5128963;27;19949;-74
2023/02/12 04:38:22;;;;;;;54.88;29.85;;;8.50;61.80;;;;;;5106245;27;20027;-75
2023/02/12 04:40:49;;;;;;;55.22;32.03;;;8.50;62.10;;;;;;5124250;27;20047;-75
2023/02/12 04:43:26;;;;;;;51.50;29.98;;;8.50;62.20;;;;;;5122237;27;20492;-74
2023/02/12 04:45:52;;;;;;;65.43;34.13;;;8.50;62.30;;;;;;5125165;27;20039;-74
2023/02/12 04:48:19;;;;;;;57.17;30.30;;;8.50;62.40;;;;;;5124683;27;20034;-74
2023/02/12 04:50:45;;;;;;;49.33;28.63;;;8.50;62.50;;;;;;5125520;27;20413;-74
2023/02/12 04:53:11;;;;;;;60.42;31.08;;;8.50;62.50;;;;;;5125451;27;20016;-75
2023/02/12 04:55:37;;;;;;;49.92;27.52;;;8.50;62.50;;;;;;5124459;27;20068;-74
2023/02/12 04:58:03;;;;;;;41.03;24.98;;;8.50;62.50;;;;;;5106481;27;20098;-74
2023/02/12 05:00:29;;;;;;;49.20;27.83;;;8.60;62.40;;;;;;5105347;27;20107;-75
2023/02/12 05:02:55;;;;;;;46.35;27.30;;;8.60;62.50;;;;;;5124611;27;20454;-74
2023/02/12 05:05:21;;;;;;;48.05;28.08;;;8.60;62.50;;;;;;5123994;27;20034;-75
2023/02/12 05:07:48;;;;;;;45.88;26.35;;;8.70;62.60;;;;;;5127865;27;20055;-74
2023/02/12 05:10:14;;;;;;;53.65;29.42;;;8.70;62.60;;;;;;5124770;27;20049;-74
2023/02/12 05:12:39;;;;;;;49.45;29.48;;;8.70;62.70;;;;;;5121585;27;20012;-74
2023/02/12 05:15:06;;;;;;;43.63;26.67;;;8.60;62.80;;;;;;5107366;27;20015;-75
2023/02/12 05:17:32;;;;;;;46.83;26.95;;;8.60;62.80;;;;;;5123551;27;20024;-74
2023/02/12 05:19:57;;;;;;;51.05;29.30;;;8.60;62.90;;;;;;5126634;27;20525;-74
2023/02/12 05:22:24;;;;;;;49.47;27.75;;;8.60;62.90;;;;;;5123582;27;20467;-74
2023/02/12 05:24:49;;;;;;;54.30;30.33;;;8.60;63.00;;;;;;5122627;27;20026;-74
2023/02/12 05:27:15;;;;;;;56.08;29.38;;;8.60;63.20;;;;;;5124432;27;20051;-74
2023/02/12 05:29:41;;;;;;;52.75;29.90;;;8.60;63.30;;;;;;5123634;27;20015;-74
2023/02/12 05:32:07;;;;;;;46.08;27.38;;;8.60;63.40;;;;;;5122593;27;20110;-75
2023/02/12 05:34:34;;;;;;;54.90;30.70;;;8.60;63.40;;;;;;5106174;27;20023;-74
2023/02/12 05:37:00;;;;;;;49.83;28.88;;;8.60;63.50;;;;;;5107801;27;20015;-74
2023/02/12 05:39:25;;;;;;;48.88;28.83;;;8.60;63.50;;;;;;5122251;27;20022;-74
2023/02/12 05:41:51;;;;;;;47.20;26.25;;;8.60;63.60;;;;;;5126994;27;20023;-75
2023/02/12 05:44:17;;;;;;;53.45;30.88;;;8.60;63.50;;;;;;5105564;27;20068;-75
2023/02/12 05:46:43;;;;;;;50.38;29.65;;;8.60;63.60;;;;;;5124526;27;20062;-74
2023/02/12 05:49:09;;;;;;;48.05;28.85;;;8.70;63.80;;;;;;5103846;28;20410;-74
2023/02/12 05:51:36;;;;;;;48.30;27.35;;;8.60;63.80;;;;;;5124766;27;20708;-75
2023/02/12 05:54:04;;;;;;;49.58;28.60;;;8.60;63.80;;;;;;5124199;27;20089;-74
2023/02/12 05:56:41;;;;;;;49.58;29.40;;;8.60;63.90;;;;;;5103734;27;20090;-74
2023/02/12 05:59:12;;;;;;;43.83;26.20;;;8.60;63.90;;;;;;5107545;27;20472;-74
2023/02/12 06:01:40;;;;;;;48.28;27.92;;;8.60;63.90;;;;;;5123444;27;20027;-74
2023/02/12 06:04:11;;;;;;;51.05;28.55;;;8.60;63.90;;;;;;5103652;28;20035;-74
2023/02/12 06:06:40;;;;;;;44.30;27.63;;;8.60;64.00;;;;;;5121753;27;20023;-74
2023/02/12 06:09:07;;;;;;;47.58;27.98;;;8.60;64.00;;;;;;5127421;27;20112;-74
2023/02/12 06:11:33;;;;;;;44.85;27.15;;;8.60;64.00;;;;;;5122968;27;20499;-74
2023/02/12 06:14:04;;;;;;;53.03;30.42;;;8.60;64.00;;;;;;5102275;28;20028;-74
2023/02/12 06:16:30;;;;;;;58.95;33.33;;;8.60;64.00;;;;;;5125663;27;20019;-75
2023/02/12 06:18:56;;;;;;;53.13;29.40;;;8.60;64.10;;;;;;5126538;27;20162;-75
2023/02/12 06:21:25;;;;;;;63.47;34.53;;;8.70;64.10;;;;;;5120268;27;20089;-74
2023/02/12 06:23:52;;;;;;;50.47;28.65;;;8.60;64.10;;;;;;5107007;27;20102;-74
2023/02/12 06:26:18;;;;;;;57.78;31.92;;;8.60;64.30;;;;;;5127579;27;20022;-74
2023/02/12 06:28:44;;;;;;;56.00;30.90;;;8.60;64.30;;;;;;5110250;27;20480;-74
2023/02/12 06:31:23;;;;;;;48.35;28.13;;;8.60;64.30;;;;;;5128507;27;20030;-74
2023/02/12 06:33:50;;;;;;;48.38;27.70;;;8.60;64.30;;;;;;5129608;27;20016;-75
2023/02/12 06:36:16;;;;;;;59.25;33.00;;;8.60;64.30;;;;;;5108779;27;20042;-74
2023/02/12 06:38:42;;;;;;;52.00;29.85;;;8.70;64.40;;;;;;5129044;27;20019;-76
2023/02/12 06:41:08;;;;;;;56.60;30.60;;;8.60;64.40;;;;;;5109923;27;20023;-74
2023/02/12 06:43:35;;;;;;;50.60;29.83;;;8.70;64.40;;;;;;5131685;27;20023;-75
2023/02/12 06:46:01;;;;;;;61.78;32.13;;;8.70;64.40;;;;;;5106623;27;20028;-74
2023/02/12 06:48:28;;;;;;;53.88;31.63;;;8.70;64.40;;;;;;5126159;27;20368;-75
2023/02/12 06:50:54;;;;;;;60.65;32.15;;;8.70;64.50;;;;;;5131798;27;20068;-74
2023/02/12 06:53:20;;;;;;;58.10;31.13;;;8.60;64.60;;;;;;5109056;28;20019;-74
2023/02/12 06:55:45;;;;;;;54.95;30.38;;;8.60;64.80;;;;;;5126058;27;20094;-74
2023/02/12 06:58:11;;;;;;;56.17;32.40;;;8.60;64.90;;;;;;5107929;27;20020;-74
2023/02/12 07:00:37;;;;;;;53.15;29.95;;;8.60;65.10;;;;;;5126876;27;20019;-74
2023/02/12 07:03:03;;;;;;;60.00;32.05;;;8.60;65.10;;;;;;5130277;27;20035;-74
2023/02/12 07:05:28;;;;;;;57.40;30.77;;;8.60;65.20;;;;;;5107343;27;20031;-75
2023/02/12 07:07:54;;;;;;;59.40;32.33;;;8.60;65.40;;;;;;5132559;27;20488;-75
2023/02/12 07:10:20;;;;;;;72.25;36.78;;;8.60;65.60;;;;;;5125619;27;20028;-75
2023/02/12 07:12:46;;;;;;;64.13;33.58;;;8.60;65.70;;;;;;5132979;27;20622;-74
2023/02/12 07:15:12;;;;;;;64.47;32.78;;;8.60;65.80;;;;;;5132122;27;20548;-74
2023/02/12 07:17:38;;;;;;;69.10;36.10;;;8.70;65.90;;;;;;5110598;27;20019;-74
2023/02/12 07:20:04;;;;;;;65.43;32.80;;;8.70;65.90;;;;;;5129698;27;20351;-74
2023/02/12 07:22:30;;;;;;;53.15;30.38;;;8.70;65.80;;;;;;5132427;27;20472;-75
2023/02/12 07:24:56;;;;;;;54.83;30.33;;;8.80;65.80;;;;;;5136446;27;20031;-74
2023/02/12 07:27:22;;;;;;;57.95;32.20;;;8.80;65.70;;;;;;5129961;27;20413;-75
2023/02/12 07:29:47;;;;;;;64.38;33.78;;;8.90;65.60;;;;;;5111593;27;20476;-75
2023/02/12 07:32:13;;;;;;;58.17;31.20;;;8.90;66.30;;;;;;5135146;27;20031;-74
2023/02/12 07:34:39;;;;;;;69.00;33.70;;;9.00;66.30;;;;;;5128886;27;20478;-75
2023/02/12 07:37:06;;;;;;;59.28;32.40;;;9.00;65.30;;;;;;5132976;27;20486;-74
2023/02/12 07:39:32;;;;;;;65.45;34.15;;;9.00;65.30;;;;;;5127859;27;20076;-74
2023/02/12 07:41:57;;;;;;;63.60;34.33;;;9.00;65.20;;;;;;5132810;27;20078;-74
2023/02/12 07:44:23;;;;;;;67.63;34.50;;;9.00;65.10;;;;;;5129153;27;20176;-75
2023/02/12 07:46:49;;;;;;;72.93;37.67;;;9.00;66.00;;;;;;5132936;27;20472;-74
2023/02/12 07:49:20;;;;;;;70.13;34.60;;;9.00;65.40;;;;;;5130662;27;20084;-74
2023/02/12 07:51:48;;;;;;;60.90;35.20;;;9.00;65.40;;;;;;5110909;27;20068;-75
2023/02/12 07:54:13;;;;;;;70.35;35.92;;;9.00;65.50;;;;;;5128462;27;20047;-74
2023/02/12 07:56:41;;;;;;;69.07;35.83;;;9.00;65.40;;;;;;5131003;27;20023;-75
2023/02/12 07:59:10;;;;;;;67.68;34.38;;;9.00;65.40;;;;;;5135270;27;20011;-74
2023/02/12 08:01:39;;;;;;;66.82;36.03;;;9.00;65.40;;;;;;5127896;27;20016;-74
2023/02/12 08:04:12;;;;;;;64.18;34.80;;;9.00;65.30;;;;;;5131849;27;20027;-75
2023/02/12 08:06:43;;;;;;;75.28;36.85;;;9.00;65.30;;;;;;5128588;27;20011;-75
2023/02/12 08:09:12;;;;;;;65.40;35.35;;;9.00;65.30;;;;;;5131882;27;20015;-75
2023/02/12 08:11:40;;;;;;;65.22;34.70;;;9.00;65.50;;;;;;5127964;27;20024;-74
2023/02/12 08:14:06;;;;;;;69.57;36.05;;;9.00;65.60;;;;;;5129418;27;20015;-74
2023/02/12 08:16:36;;;;;;;69.85;36.38;;;9.00;65.60;;;;;;5130675;27;20505;-74
2023/02/12 08:19:02;;;;;;;73.20;38.65;;;9.10;65.80;;;;;;5110332;27;20026;-74
2023/02/12 08:21:28;;;;;;;66.32;35.42;;;9.10;65.60;;;;;;5110747;27;20096;-75
2023/02/12 08:23:56;;;;;;;65.57;36.05;;;9.10;65.70;;;;;;5110529;27;20028;-74
2023/02/12 08:26:28;;;;;;;65.85;35.80;;;9.10;65.70;;;;;;5129237;27;20031;-75
2023/02/12 08:29:06;;;;;;;72.10;36.03;;;9.10;65.70;;;;;;5131152;27;20426;-74
2023/02/12 08:31:34;;;;;;;68.03;35.42;;;9.20;65.70;;;;;;5129858;27;20027;-74
2023/02/12 08:34:01;;;;;;;60.42;33.00;;;9.20;65.60;;;;;;5127760;27;20023;-74
2023/02/12 08:36:39;;;;;;;59.63;32.65;;;9.30;65.50;;;;;;5128938;27;20027;-74
2023/02/12 08:39:06;;;;;;;68.22;33.90;;;9.40;65.50;;;;;;5132070;27;20146;-75
2023/02/12 08:41:33;;;;;;;67.40;36.13;;;9.40;65.20;;;;;;5131714;27;20035;-74
2023/02/12 08:44:01;;;;;;;71.72;34.85;;;9.50;65.10;;;;;;5129172;27;20028;-74
2023/02/12 08:46:34;;;;;;;71.55;37.40;;;9.50;65.00;;;;;;5128668;27;20034;-74
2023/02/12 08:49:05;;;;;;;76.30;37.60;;;9.50;64.80;;;;;;5107233;27;20049;-75
2023/02/12 08:51:34;;;;;;;67.88;36.42;;;9.60;64.70;;;;;;5104784;27;20089;-75
2023/02/12 08:54:03;;;;;;;86.50;38.55;;;9.60;64.80;;;;;;5106174;27;20056;-75
2023/02/12 08:56:31;;;;;;;70.70;35.78;;;9.60;64.70;;;;;;5108256;27;20012;-75
2023/02/12 08:58:57;;;;;;;75.15;37.35;;;9.60;64.70;;;;;;5114355;27;20033;-74
2023/02/12 09:01:26;;;;;;;77.80;36.80;;;9.70;64.70;;;;;;5106953;27;20627;-74
2023/02/12 09:03:52;;;;;;;68.70;35.05;;;9.70;64.70;;;;;;5106754;28;20097;-74
2023/02/12 09:06:20;;;;;;;65.55;34.00;;;9.70;64.70;;;;;;5110584;27;20440;-74
2023/02/12 09:08:47;;;;;;;57.88;31.67;;;9.80;64.70;;;;;;5110235;27;20024;-74
2023/02/12 09:11:16;;;;;;;67.88;33.70;;;9.90;64.80;;;;;;5101697;27;20423;-74
2023/02/12 09:13:42;;;;;;;59.67;32.40;;;10.00;64.60;;;;;;5105569;27;20024;-75
2023/02/12 09:16:08;;;;;;;67.85;34.65;;;10.10;64.50;;;;;;5103508;27;20042;-74
2023/02/12 09:18:35;;;;;;;65.30;33.08;;;10.20;64.10;;;;;;5106276;27;20011;-74
2023/02/12 09:21:03;;;;;;;70.85;34.20;;;10.30;63.80;;;;;;5110246;27;20022;-75
2023/02/12 09:23:29;;;;;;;66.10;34.38;;;10.40;63.60;;;;;;5102909;28;20063;-75
2023/02/12 09:25:55;;;;;;;73.93;37.55;;;10.60;63.30;;;;;;5101772;27;20028;-75
2023/02/12 09:28:21;;;;;;;78.00;35.92;;;10.60;62.70;;;;;;5105256;27;21331;-74
2023/02/12 09:30:47;;;;;;;75.70;36.75;;;10.70;62.40;;;;;;5106748;27;20318;-74
2023/02/12 09:33:13;;;;;;;69.82;35.22;;;10.70;61.90;;;;;;5108208;27;20042;-74
2023/02/12 09:35:40;;;;;;;74.22;35.47;;;10.80;61.70;;;;;;5106039;27;20020;-74
2023/02/12 09:38:06;;;;;;;77.93;37.70;;;10.80;61.50;;;;;;5106207;27;20016;-74
2023/02/12 09:41:05;;;;;;;77.28;35.50;;;10.90;61.40;;;;;;5106383;27;20153;-75
2023/02/12 09:43:47;;;;;;;71.07;35.05;;;10.90;61.30;;;;;;5105595;28;20020;-75
2023/02/12 09:46:32;;;;;;;75.05;37.10;;;11.00;61.40;;;;;;5105544;27;20728;-74
2023/02/12 09:49:14;;;;;;;68.18;35.60;;;11.10;61.00;;;;;;5112170;27;20035;-75
2023/02/12 09:51:44;;;;;;;81.80;39.47;;;11.20;61.20;;;;;;5108363;27;20095;-75
2023/02/12 09:54:15;;;;;;;72.22;37.35;;;11.20;60.70;;;;;;5108779;28;20440;-75
2023/02/12 09:56:47;;;;;;;67.82;33.00;;;11.30;60.60;;;;;;5129858;27;20341;-75
2023/02/12 09:59:34;;;;;;;68.82;33.75;;;11.40;60.50;;;;;;5129645;27;20018;-74
2023/02/12 10:02:00;;;;;;;71.40;34.72;;;11.50;60.50;;;;;;5123253;27;20034;-75
2023/02/12 10:04:27;;;;;;;73.18;37.45;;;11.60;60.30;;;;;;5126628;27;20098;-75
2023/02/12 10:07:15;;;;;;;65.88;34.97;;;11.60;59.50;;;;;;5130286;27;20023;-74
2023/02/12 10:09:58;;;;;;;64.50;34.80;;;11.70;59.30;;;;;;5126197;27;20023;-75
2023/02/12 10:12:33;;;;;;;66.85;36.42;;;11.70;59.20;;;;;;5122644;28;20041;-75
2023/02/12 10:15:43;;;;;;;69.78;36.22;;;11.80;59.00;;;;;;5132770;27;20019;-75
2023/02/12 10:18:38;;;;;;;74.18;34.67;;;11.80;58.80;;;;;;5118120;27;20030;-75
2023/02/12 10:21:24;;;;;;;68.82;34.45;;;11.80;58.80;;;;;;5120650;27;20057;-74
2023/02/12 10:24:02;;;;;;;69.15;35.47;;;11.90;58.80;;;;;;5142782;27;20019;-74
2023/02/12 10:26:38;;;;;;;66.90;35.00;;;11.90;58.60;;;;;;5125240;28;20085;-74
2023/02/12 10:29:29;;;;;;;68.82;33.78;;;11.90;58.60;;;;;;5102700;27;20022;-75
2023/02/12 10:32:06;;;;;;;69.53;34.67;;;12.00;58.70;;;;;;5148065;27;20459;-75
2023/02/12 10:34:35;;;;;;;62.78;32.15;;;12.00;58.50;;;;;;5136782;27;20031;-74
2023/02/12 10:37:34;;;;;;;65.60;33.08;;;12.10;58.60;;;;;;5145201;27;20021;-75
2023/02/12 10:40:18;;;;;;;64.18;33.03;;;12.10;58.70;;;;;;5141296;27;20083;-74
2023/02/12 10:42:48;;;;;;;64.90;32.55;;;12.20;58.70;;;;;;5150164;27;20045;-74
2023/02/12 10:45:17;;;;;;;71.25;33.90;;;12.30;58.50;;;;;;5123289;27;20034;-75
2023/02/12 10:47:45;;;;;;;68.93;35.47;;;12.40;58.30;;;;;;5143599;27;20508;-75
2023/02/12 10:50:27;;;;;;;62.88;34.65;;;12.50;58.00;;;;;;5146585;27;20046;-74
2023/02/12 10:52:57;;;;;;;64.60;33.03;;;12.50;58.00;;;;;;5135587;27;20106;-73
2023/02/12 10:55:24;;;;;;;62.15;32.25;;;12.60;58.00;;;;;;5111232;28;20011;-73
2023/02/12 10:57:50;;;;;;;70.40;34.65;;;12.60;57.90;;;;;;5143491;27;20113;-75
2023/02/12 11:00:32;;;;;;;59.65;33.83;;;12.70;57.90;;;;;;5139013;27;20026;-73
2023/02/12 11:03:22;;;;;;;65.82;35.78;;;12.80;57.70;;;;;;5147785;27;20066;-73
2023/02/12 11:05:48;;;;;;;66.70;33.40;;;12.90;57.60;;;;;;5123246;28;20019;-74
2023/02/12 11:08:34;;;;;;;80.70;37.10;;;12.90;57.30;;;;;;5106677;28;20038;-74
2023/02/12 11:11:32;;;;;;;64.22;34.03;;;13.00;56.90;;;;;;5128496;27;20027;-73
2023/02/12 11:14:19;;;;;;;60.22;31.23;;;13.00;57.10;;;;;;5123517;27;20023;-74
2023/02/12 11:16:57;;;;;;;66.47;35.08;;;13.00;57.10;;;;;;5129818;27;20084;-75
2023/02/12 11:19:26;;;;;;;67.70;33.85;;;13.10;56.70;;;;;;5109028;27;20027;-74
2023/02/12 11:22:13;;;;;;;65.95;34.28;;;13.20;56.80;;;;;;5109759;27;20061;-75
2023/02/12 11:24:39;;;;;;;65.10;34.20;;;13.20;56.60;;;;;;5126480;27;20069;-73
2023/02/12 11:27:21;;;;;;;61.28;33.05;;;13.20;56.60;;;;;;5129524;27;20029;-74
2023/02/12 11:30:09;;;;;;;70.38;33.75;;;13.30;56.50;;;;;;5126952;27;20023;-72
2023/02/12 11:32:36;;;;;;;68.22;34.30;;;13.30;56.20;;;;;;5107531;27;20114;-73
2023/02/12 11:35:05;;;;;;;78.03;35.13;;;13.30;56.10;;;;;;5090591;27;20122;-73
2023/02/12 11:37:35;;;;;;;69.13;33.83;;;13.40;56.20;;;;;;5126288;27;20403;-73
2023/02/12 11:40:02;;;;;;;71.43;34.40;;;13.40;56.10;;;;;;5129072;27;20122;-73
2023/02/12 11:42:35;;;;;;;67.28;33.03;;;13.40;55.90;;;;;;5124138;27;20020;-73
2023/02/12 11:45:02;;;;;;;72.68;32.25;;;13.50;55.90;;;;;;5125341;27;20027;-73
2023/02/12 11:47:39;;;;;;;61.35;31.63;;;13.50;55.90;;;;;;5124279;27;20023;-72
2023/02/12 11:50:31;;;;;;;60.60;31.08;;;13.60;55.80;;;;;;5121846;27;20046;-72
2023/02/12 11:53:08;;;;;;;66.38;33.15;;;13.70;55.80;;;;;;5108424;27;20126;-72
2023/02/12 11:55:42;;;;;;;66.25;32.50;;;13.70;55.30;;;;;;5109978;27;20147;-73
2023/02/12 11:58:19;;;;;;;72.95;31.30;;;13.70;55.20;;;;;;5106572;27;20046;-75
2023/02/12 12:01:12;;;;;;;60.53;31.63;;;13.80;55.30;;;;;;5106905;27;20073;-75
2023/02/12 12:03:42;;;;;;;61.85;32.33;;;13.80;55.00;;;;;;5110746;27;20417;-73
2023/02/12 12:06:54;;;;;;;63.10;31.70;;;13.80;55.00;;;;;;5124782;27;20023;-74
2023/02/12 12:09:30;;;;;;;58.70;31.92;;;13.90;55.10;;;;;;5054884;28;20036;-74
2023/02/12 12:12:07;;;;;;;53.78;30.90;;;13.90;54.80;;;;;;5061643;28;20033;-74
2023/02/12 12:21:00;;;;;;;54.92;29.95;;;14.10;54.60;;;;;;5067201;28;20523;-74
2023/02/12 12:23:59;;;;;;;67.03;35.72;;;14.10;54.50;;;;;;5030995;28;20024;-75
2023/02/12 12:26:28;;;;;;;63.53;34.25;;;14.10;54.50;;;;;;5002336;28;20101;-74
2023/02/12 12:29:23;;;;;;;73.57;36.40;;;14.10;54.40;;;;;;5065683;28;20090;-74
2023/02/12 12:32:02;;;;;;;65.05;35.47;;;14.10;54.00;;;;;;5064140;28;20040;-74
2023/02/12 12:34:30;;;;;;;83.20;38.80;;;14.10;54.20;;;;;;5064632;28;20107;-72
2023/02/12 12:37:25;;;;;;;65.90;32.85;;;14.10;54.10;;;;;;5085725;28;20075;-74
2023/02/12 12:40:12;;;;;;;65.13;34.42;;;14.20;54.20;;;;;;5080817;28;20051;-73
2023/02/12 12:43:00;;;;;;;62.88;33.05;;;14.20;54.00;;;;;;5088221;28;20030;-75
2023/02/12 12:45:50;;;;;;;72.53;37.22;;;14.20;54.00;;;;;;5078785;27;20068;-73
2023/02/12 12:48:26;;;;;;;59.88;34.70;;;14.20;53.70;;;;;;5131434;27;20054;-73
2023/02/12 12:51:21;;;;;;;58.55;33.83;;;14.30;53.70;;;;;;5137634;27;20047;-73
2023/02/12 12:54:13;;;;;;;68.07;36.08;;;14.30;53.70;;;;;;5144969;27;20379;-74
2023/02/12 12:57:28;;;;;;;62.42;35.42;;;14.30;53.40;;;;;;5151704;27;20019;-76
2023/02/12 13:00:02;;;;;;;63.30;30.83;;;14.30;53.50;;;;;;5068310;27;20532;-75
2023/02/12 13:02:56;;;;;;;55.47;31.88;;;14.30;53.30;;;;;;5138851;27;20050;-73
2023/02/12 13:05:48;;;;;;;47.67;27.77;;;14.30;53.40;;;;;;5139981;27;20022;-75
2023/02/12 13:08:21;;;;;;;60.40;30.25;;;14.30;53.30;;;;;;5121952;27;20031;-74
2023/02/12 13:11:18;;;;;;;53.22;30.58;;;14.30;53.50;;;;;;5151299;27;20467;-74